sensor_id;sensor_type;location;lat;lon;timestamp;temperature;humidity
37340;DHT22;23223;51.006;7.610;2022-10-31T00:02:02;9.20;99.90
37340;DHT22;23223;51.006;7.610;2022-10-31T00:04:28;9.10;99.90
37340;DHT22;23223;51.006;7.610;2022-10-31T00:06:53;9.20;99.90
37340;DHT22;23223;51.006;7.610;2022-10-31T00:09:19;9.60;99.90
37340;DHT22;23223;51.006;7.610;2022-10-31T00:11:44;9.60;99.90
37340;DHT22;23223;51.006;7.610;2022-10-31T00:14:10;9.50;99.90
37340;DHT22;23223;51.006;7.610;2022-10-31T00:16:36;9.40;99.90
37340;DHT22;23223;51.006;7.610;2022-10-31T00:19:05;9.40;99.90
37340;DHT22;23223;51.006;7.610;2022-10-31T00:21:31;9.40;99.90
37340;DHT22;23223;51.006;7.610;2022-10-31T00:23:58;9.40;99.90
37340;DHT22;23223;51.006;7.610;2022-10-31T00:26:24;9.40;99.90
37340;DHT22;23223;51.006;7.610;2022-10-31T00:28:49;9.60;99.90
37340;DHT22;23223;51.006;7.610;2022-10-31T00:31:16;9.50;99.90
37340;DHT22;23223;51.006;7.610;2022-10-31T00:33:42;9.50;99.90
37340;DHT22;23223;51.006;7.610;2022-10-31T00:36:14;9.60;99.90
37340;DHT22;23223;51.006;7.610;2022-10-31T00:38:41;9.90;99.90
37340;DHT22;23223;51.006;7.610;2022-10-31T00:41:06;9.90;99.90
37340;DHT22;23223;51.006;7.610;2022-10-31T00:43:32;9.90;99.90
37340;DHT22;23223;51.006;7.610;2022-10-31T00:45:57;10.10;99.90
37340;DHT22;23223;51.006;7.610;2022-10-31T00:48:23;10.00;99.90
37340;DHT22;23223;51.006;7.610;2022-10-31T00:50:49;9.80;99.90
37340;DHT22;23223;51.006;7.610;2022-10-31T00:53:14;9.70;99.90
37340;DHT22;23223;51.006;7.610;2022-10-31T00:55:40;9.50;99.90
37340;DHT22;23223;51.006;7.610;2022-10-31T00:58:05;9.30;99.90
37340;DHT22;23223;51.006;7.610;2022-10-31T01:00:31;9.10;99.90
37340;DHT22;23223;51.006;7.610;2022-10-31T01:02:56;9.00;99.90
37340;DHT22;23223;51.006;7.610;2022-10-31T01:05:22;9.00;99.90
37340;DHT22;23223;51.006;7.610;2022-10-31T01:07:47;8.90;99.90
37340;DHT22;23223;51.006;7.610;2022-10-31T01:10:13;8.80;99.90
37340;DHT22;23223;51.006;7.610;2022-10-31T01:12:40;8.70;99.90
37340;DHT22;23223;51.006;7.610;2022-10-31T01:15:07;8.50;99.90
37340;DHT22;23223;51.006;7.610;2022-10-31T01:17:33;8.50;99.90
37340;DHT22;23223;51.006;7.610;2022-10-31T01:19:58;8.50;99.90
37340;DHT22;23223;51.006;7.610;2022-10-31T01:22:24;8.40;99.90
37340;DHT22;23223;51.006;7.610;2022-10-31T01:24:49;8.40;99.90
37340;DHT22;23223;51.006;7.610;2022-10-31T01:27:15;8.30;99.90
37340;DHT22;23223;51.006;7.610;2022-10-31T01:29:40;8.20;99.90
37340;DHT22;23223;51.006;7.610;2022-10-31T01:32:06;8.20;99.90
37340;DHT22;23223;51.006;7.610;2022-10-31T01:34:32;8.20;99.90
37340;DHT22;23223;51.006;7.610;2022-10-31T01:36:57;8.20;99.90
37340;DHT22;23223;51.006;7.610;2022-10-31T01:39:23;8.20;99.90
37340;DHT22;23223;51.006;7.610;2022-10-31T01:41:51;8.10;99.90
37340;DHT22;23223;51.006;7.610;2022-10-31T01:49:49;8.80;99.90
37340;DHT22;23223;51.006;7.610;2022-10-31T01:54:53;9.20;99.90
37340;DHT22;23223;51.006;7.610;2022-10-31T01:57:22;9.00;99.90
37340;DHT22;23223;51.006;7.610;2022-10-31T01:59:49;8.60;99.90
37340;DHT22;23223;51.006;7.610;2022-10-31T02:02:18;8.70;99.90
37340;DHT22;23223;51.006;7.610;2022-10-31T02:04:45;9.00;99.90
37340;DHT22;23223;51.006;7.610;2022-10-31T02:07:16;9.10;99.90
37340;DHT22;23223;51.006;7.610;2022-10-31T02:09:45;8.90;99.90
37340;DHT22;23223;51.006;7.610;2022-10-31T02:12:12;8.70;99.90
37340;DHT22;23223;51.006;7.610;2022-10-31T02:14:38;8.40;99.90
37340;DHT22;23223;51.006;7.610;2022-10-31T02:17:05;8.20;99.90
37340;DHT22;23223;51.006;7.610;2022-10-31T02:19:33;8.10;99.90
37340;DHT22;23223;51.006;7.610;2022-10-31T02:22:11;7.90;99.90
37340;DHT22;23223;51.006;7.610;2022-10-31T02:30:24;7.80;99.90
37340;DHT22;23223;51.006;7.610;2022-10-31T02:33:15;7.90;99.90
37340;DHT22;23223;51.006;7.610;2022-10-31T02:39:13;7.70;99.90
37340;DHT22;23223;51.006;7.610;2022-10-31T02:44:30;8.30;99.90
37340;DHT22;23223;51.006;7.610;2022-10-31T02:47:26;8.40;99.90
37340;DHT22;23223;51.006;7.610;2022-10-31T02:52:27;8.10;99.90
37340;DHT22;23223;51.006;7.610;2022-10-31T02:54:53;8.00;99.90
37340;DHT22;23223;51.006;7.610;2022-10-31T02:57:31;7.90;99.90
37340;DHT22;23223;51.006;7.610;2022-10-31T03:00:04;7.90;99.90
37340;DHT22;23223;51.006;7.610;2022-10-31T03:02:45;7.90;99.90
37340;DHT22;23223;51.006;7.610;2022-10-31T03:18:40;8.40;99.90
37340;DHT22;23223;51.006;7.610;2022-10-31T03:21:13;8.20;99.90
37340;DHT22;23223;51.006;7.610;2022-10-31T03:23:40;8.10;99.90
37340;DHT22;23223;51.006;7.610;2022-10-31T03:26:07;8.20;99.90
37340;DHT22;23223;51.006;7.610;2022-10-31T03:28:52;8.10;99.90
37340;DHT22;23223;51.006;7.610;2022-10-31T03:31:23;8.00;99.90
37340;DHT22;23223;51.006;7.610;2022-10-31T03:33:51;7.90;99.90
37340;DHT22;23223;51.006;7.610;2022-10-31T03:36:17;7.80;99.90
37340;DHT22;23223;51.006;7.610;2022-10-31T03:38:45;7.70;99.90
37340;DHT22;23223;51.006;7.610;2022-10-31T03:41:16;7.60;99.90
37340;DHT22;23223;51.006;7.610;2022-10-31T03:43:59;7.60;99.90
37340;DHT22;23223;51.006;7.610;2022-10-31T03:46:26;7.90;99.90
37340;DHT22;23223;51.006;7.610;2022-10-31T03:48:52;8.20;99.90
37340;DHT22;23223;51.006;7.610;2022-10-31T03:51:42;8.20;99.90
37340;DHT22;23223;51.006;7.610;2022-10-31T03:54:21;8.10;99.90
37340;DHT22;23223;51.006;7.610;2022-10-31T03:57:03;8.00;99.90
37340;DHT22;23223;51.006;7.610;2022-10-31T03:59:36;8.40;99.90
37340;DHT22;23223;51.006;7.610;2022-10-31T04:02:08;8.80;99.90
37340;DHT22;23223;51.006;7.610;2022-10-31T04:04:36;9.00;99.90
37340;DHT22;23223;51.006;7.610;2022-10-31T04:07:03;8.80;99.90
37340;DHT22;23223;51.006;7.610;2022-10-31T04:09:33;8.50;99.90
37340;DHT22;23223;51.006;7.610;2022-10-31T04:12:01;8.30;99.90
37340;DHT22;23223;51.006;7.610;2022-10-31T04:14:31;8.00;99.90
37340;DHT22;23223;51.006;7.610;2022-10-31T04:16:57;7.90;99.90
37340;DHT22;23223;51.006;7.610;2022-10-31T04:19:23;7.70;99.90
37340;DHT22;23223;51.006;7.610;2022-10-31T04:21:48;7.50;99.90
37340;DHT22;23223;51.006;7.610;2022-10-31T04:24:14;7.50;99.90
37340;DHT22;23223;51.006;7.610;2022-10-31T04:26:40;7.50;99.90
37340;DHT22;23223;51.006;7.610;2022-10-31T04:29:05;7.50;99.90
37340;DHT22;23223;51.006;7.610;2022-10-31T04:31:31;7.50;99.90
37340;DHT22;23223;51.006;7.610;2022-10-31T04:33:56;7.40;99.90
37340;DHT22;23223;51.006;7.610;2022-10-31T04:36:22;7.30;99.90
37340;DHT22;23223;51.006;7.610;2022-10-31T04:38:47;7.20;99.90
37340;DHT22;23223;51.006;7.610;2022-10-31T04:41:13;7.20;99.90
37340;DHT22;23223;51.006;7.610;2022-10-31T04:43:38;7.10;99.90
37340;DHT22;23223;51.006;7.610;2022-10-31T04:46:04;7.20;99.90
37340;DHT22;23223;51.006;7.610;2022-10-31T04:48:30;7.60;99.90
37340;DHT22;23223;51.006;7.610;2022-10-31T04:50:59;7.70;99.90
37340;DHT22;23223;51.006;7.610;2022-10-31T04:53:26;7.70;99.90
37340;DHT22;23223;51.006;7.610;2022-10-31T04:55:51;7.60;99.90
37340;DHT22;23223;51.006;7.610;2022-10-31T04:58:17;7.50;99.90
37340;DHT22;23223;51.006;7.610;2022-10-31T05:00:42;7.40;99.90
37340;DHT22;23223;51.006;7.610;2022-10-31T05:03:08;7.40;99.90
37340;DHT22;23223;51.006;7.610;2022-10-31T05:05:33;7.40;99.90
37340;DHT22;23223;51.006;7.610;2022-10-31T05:07:59;7.40;99.90
37340;DHT22;23223;51.006;7.610;2022-10-31T05:10:27;7.30;99.90
37340;DHT22;23223;51.006;7.610;2022-10-31T05:12:58;7.20;99.90
37340;DHT22;23223;51.006;7.610;2022-10-31T05:15:25;7.30;99.90
37340;DHT22;23223;51.006;7.610;2022-10-31T05:17:52;7.40;99.90
37340;DHT22;23223;51.006;7.610;2022-10-31T05:20:19;7.50;99.90
37340;DHT22;23223;51.006;7.610;2022-10-31T05:22:47;7.50;99.90
37340;DHT22;23223;51.006;7.610;2022-10-31T05:25:13;7.60;99.90
37340;DHT22;23223;51.006;7.610;2022-10-31T05:27:40;7.60;99.90
37340;DHT22;23223;51.006;7.610;2022-10-31T05:30:06;8.00;99.90
37340;DHT22;23223;51.006;7.610;2022-10-31T05:32:44;8.30;99.90
37340;DHT22;23223;51.006;7.610;2022-10-31T05:35:12;8.50;99.90
37340;DHT22;23223;51.006;7.610;2022-10-31T05:37:38;8.60;99.90
37340;DHT22;23223;51.006;7.610;2022-10-31T05:40:06;8.40;99.90
37340;DHT22;23223;51.006;7.610;2022-10-31T05:42:32;8.30;99.90
37340;DHT22;23223;51.006;7.610;2022-10-31T05:44:58;8.50;99.90
37340;DHT22;23223;51.006;7.610;2022-10-31T05:47:24;8.50;99.90
37340;DHT22;23223;51.006;7.610;2022-10-31T05:49:49;8.40;99.90
37340;DHT22;23223;51.006;7.610;2022-10-31T05:52:15;8.40;99.90
37340;DHT22;23223;51.006;7.610;2022-10-31T05:54:40;8.60;99.90
37340;DHT22;23223;51.006;7.610;2022-10-31T05:57:06;8.90;99.90
37340;DHT22;23223;51.006;7.610;2022-10-31T05:59:31;9.10;99.90
37340;DHT22;23223;51.006;7.610;2022-10-31T06:01:57;8.90;99.90
37340;DHT22;23223;51.006;7.610;2022-10-31T06:04:23;8.70;99.90
37340;DHT22;23223;51.006;7.610;2022-10-31T06:06:48;8.60;99.90
37340;DHT22;23223;51.006;7.610;2022-10-31T06:09:14;8.60;99.90
37340;DHT22;23223;51.006;7.610;2022-10-31T06:11:39;8.60;99.90
37340;DHT22;23223;51.006;7.610;2022-10-31T06:14:05;8.40;99.90
37340;DHT22;23223;51.006;7.610;2022-10-31T06:16:31;8.40;99.90
37340;DHT22;23223;51.006;7.610;2022-10-31T06:18:56;8.70;99.90
37340;DHT22;23223;51.006;7.610;2022-10-31T06:21:22;8.80;99.90
37340;DHT22;23223;51.006;7.610;2022-10-31T06:23:47;8.70;99.90
37340;DHT22;23223;51.006;7.610;2022-10-31T06:26:13;8.50;99.90
37340;DHT22;23223;51.006;7.610;2022-10-31T06:28:38;8.50;99.90
37340;DHT22;23223;51.006;7.610;2022-10-31T06:31:04;8.60;99.90
37340;DHT22;23223;51.006;7.610;2022-10-31T06:33:30;8.70;99.90
37340;DHT22;23223;51.006;7.610;2022-10-31T06:35:55;8.80;99.90
37340;DHT22;23223;51.006;7.610;2022-10-31T06:38:21;8.70;99.90
37340;DHT22;23223;51.006;7.610;2022-10-31T06:40:46;8.80;99.90
37340;DHT22;23223;51.006;7.610;2022-10-31T06:43:12;8.70;99.90
37340;DHT22;23223;51.006;7.610;2022-10-31T06:45:39;8.60;99.90
37340;DHT22;23223;51.006;7.610;2022-10-31T06:48:05;8.50;99.90
37340;DHT22;23223;51.006;7.610;2022-10-31T06:50:31;8.70;99.90
37340;DHT22;23223;51.006;7.610;2022-10-31T06:52:57;9.00;99.90
37340;DHT22;23223;51.006;7.610;2022-10-31T06:55:25;9.00;99.90
37340;DHT22;23223;51.006;7.610;2022-10-31T06:58:00;8.80;99.90
37340;DHT22;23223;51.006;7.610;2022-10-31T07:00:28;8.70;99.90
37340;DHT22;23223;51.006;7.610;2022-10-31T07:03:02;8.80;99.90
37340;DHT22;23223;51.006;7.610;2022-10-31T07:05:28;9.00;99.90
37340;DHT22;23223;51.006;7.610;2022-10-31T07:08:02;9.10;99.90
37340;DHT22;23223;51.006;7.610;2022-10-31T07:10:30;9.30;99.90
37340;DHT22;23223;51.006;7.610;2022-10-31T07:12:58;9.80;99.90
37340;DHT22;23223;51.006;7.610;2022-10-31T07:15:25;10.30;99.90
37340;DHT22;23223;51.006;7.610;2022-10-31T07:17:50;10.70;99.90
37340;DHT22;23223;51.006;7.610;2022-10-31T07:20:16;10.60;99.90
37340;DHT22;23223;51.006;7.610;2022-10-31T07:22:42;10.40;99.90
37340;DHT22;23223;51.006;7.610;2022-10-31T07:25:08;10.20;99.90
37340;DHT22;23223;51.006;7.610;2022-10-31T07:27:38;10.10;99.90
37340;DHT22;23223;51.006;7.610;2022-10-31T07:30:08;10.30;99.90
37340;DHT22;23223;51.006;7.610;2022-10-31T07:32:42;10.70;99.90
37340;DHT22;23223;51.006;7.610;2022-10-31T07:35:09;10.90;99.90
37340;DHT22;23223;51.006;7.610;2022-10-31T07:37:35;11.20;99.90
37340;DHT22;23223;51.006;7.610;2022-10-31T07:40:04;11.50;99.90
37340;DHT22;23223;51.006;7.610;2022-10-31T07:42:41;11.70;99.90
37340;DHT22;23223;51.006;7.610;2022-10-31T07:45:09;11.80;99.90
37340;DHT22;23223;51.006;7.610;2022-10-31T07:47:43;11.80;99.90
37340;DHT22;23223;51.006;7.610;2022-10-31T07:50:14;12.10;99.90
37340;DHT22;23223;51.006;7.610;2022-10-31T07:52:40;12.60;99.90
37340;DHT22;23223;51.006;7.610;2022-10-31T07:55:06;12.90;99.90
37340;DHT22;23223;51.006;7.610;2022-10-31T07:57:32;13.30;99.90
37340;DHT22;23223;51.006;7.610;2022-10-31T07:59:58;13.40;99.90
37340;DHT22;23223;51.006;7.610;2022-10-31T08:02:24;13.30;99.90
37340;DHT22;23223;51.006;7.610;2022-10-31T08:04:50;13.20;99.90
37340;DHT22;23223;51.006;7.610;2022-10-31T08:07:16;13.20;99.90
37340;DHT22;23223;51.006;7.610;2022-10-31T08:09:42;13.30;99.90
37340;DHT22;23223;51.006;7.610;2022-10-31T08:12:07;13.30;99.90
37340;DHT22;23223;51.006;7.610;2022-10-31T08:14:33;13.40;99.90
37340;DHT22;23223;51.006;7.610;2022-10-31T08:16:58;13.30;99.90
37340;DHT22;23223;51.006;7.610;2022-10-31T08:19:25;13.30;99.90
37340;DHT22;23223;51.006;7.610;2022-10-31T08:21:51;13.50;99.90
37340;DHT22;23223;51.006;7.610;2022-10-31T08:24:17;14.00;99.90
37340;DHT22;23223;51.006;7.610;2022-10-31T08:26:43;14.30;99.90
37340;DHT22;23223;51.006;7.610;2022-10-31T08:29:08;14.30;99.90
37340;DHT22;23223;51.006;7.610;2022-10-31T08:31:34;14.60;99.90
37340;DHT22;23223;51.006;7.610;2022-10-31T08:34:00;14.70;99.90
37340;DHT22;23223;51.006;7.610;2022-10-31T08:36:27;14.60;99.90
37340;DHT22;23223;51.006;7.610;2022-10-31T08:38:52;14.40;99.90
37340;DHT22;23223;51.006;7.610;2022-10-31T08:41:18;14.30;99.90
37340;DHT22;23223;51.006;7.610;2022-10-31T08:43:44;14.30;99.90
37340;DHT22;23223;51.006;7.610;2022-10-31T08:46:09;14.40;99.90
37340;DHT22;23223;51.006;7.610;2022-10-31T08:48:35;14.50;99.90
37340;DHT22;23223;51.006;7.610;2022-10-31T08:51:00;14.70;99.90
37340;DHT22;23223;51.006;7.610;2022-10-31T08:53:26;15.10;99.90
37340;DHT22;23223;51.006;7.610;2022-10-31T08:55:55;15.40;99.90
37340;DHT22;23223;51.006;7.610;2022-10-31T08:58:21;15.50;99.90
37340;DHT22;23223;51.006;7.610;2022-10-31T09:00:49;15.60;99.90
37340;DHT22;23223;51.006;7.610;2022-10-31T09:03:17;15.70;99.90
37340;DHT22;23223;51.006;7.610;2022-10-31T09:05:43;15.60;99.90
37340;DHT22;23223;51.006;7.610;2022-10-31T09:08:09;15.60;99.90
37340;DHT22;23223;51.006;7.610;2022-10-31T09:10:36;15.70;99.90
37340;DHT22;23223;51.006;7.610;2022-10-31T09:13:13;15.60;99.90
37340;DHT22;23223;51.006;7.610;2022-10-31T09:15:41;15.90;99.90
37340;DHT22;23223;51.006;7.610;2022-10-31T09:18:08;15.90;99.90
37340;DHT22;23223;51.006;7.610;2022-10-31T09:20:35;15.90;99.90
37340;DHT22;23223;51.006;7.610;2022-10-31T09:23:13;15.90;99.90
37340;DHT22;23223;51.006;7.610;2022-10-31T09:25:39;15.90;99.90
37340;DHT22;23223;51.006;7.610;2022-10-31T09:28:06;15.90;99.90
37340;DHT22;23223;51.006;7.610;2022-10-31T09:30:34;15.80;99.90
37340;DHT22;23223;51.006;7.610;2022-10-31T09:33:05;15.90;99.90
37340;DHT22;23223;51.006;7.610;2022-10-31T09:35:31;15.90;99.90
37340;DHT22;23223;51.006;7.610;2022-10-31T09:37:59;15.90;99.90
37340;DHT22;23223;51.006;7.610;2022-10-31T09:43:45;16.00;99.90
37340;DHT22;23223;51.006;7.610;2022-10-31T09:46:13;16.20;99.90
37340;DHT22;23223;51.006;7.610;2022-10-31T09:51:33;16.50;99.90
37340;DHT22;23223;51.006;7.610;2022-10-31T09:56:30;16.80;99.90
37340;DHT22;23223;51.006;7.610;2022-10-31T09:58:59;16.90;99.90
37340;DHT22;23223;51.006;7.610;2022-10-31T10:04:31;17.40;99.90
37340;DHT22;23223;51.006;7.610;2022-10-31T10:06:58;17.90;99.90
37340;DHT22;23223;51.006;7.610;2022-10-31T10:09:26;18.70;99.90
37340;DHT22;23223;51.006;7.610;2022-10-31T10:14:42;20.40;99.90
37340;DHT22;23223;51.006;7.610;2022-10-31T10:17:22;21.40;99.90
37340;DHT22;23223;51.006;7.610;2022-10-31T10:22:42;22.70;99.90
37340;DHT22;23223;51.006;7.610;2022-10-31T10:25:25;22.90;99.90
37340;DHT22;23223;51.006;7.610;2022-10-31T10:30:41;23.40;99.90
37340;DHT22;23223;51.006;7.610;2022-10-31T10:33:13;23.80;99.90
37340;DHT22;23223;51.006;7.610;2022-10-31T10:35:55;23.90;99.90
37340;DHT22;23223;51.006;7.610;2022-10-31T10:38:36;24.00;99.90
37340;DHT22;23223;51.006;7.610;2022-10-31T10:41:11;24.10;99.90
37340;DHT22;23223;51.006;7.610;2022-10-31T10:43:38;23.90;99.90
37340;DHT22;23223;51.006;7.610;2022-10-31T10:46:58;23.50;99.90
37340;DHT22;23223;51.006;7.610;2022-10-31T10:52:43;23.90;99.90
37340;DHT22;23223;51.006;7.610;2022-10-31T10:58:06;23.90;99.90
37340;DHT22;23223;51.006;7.610;2022-10-31T11:00:35;23.70;99.90
37340;DHT22;23223;51.006;7.610;2022-10-31T11:03:03;23.10;99.90
37340;DHT22;23223;51.006;7.610;2022-10-31T11:05:54;22.90;99.90
37340;DHT22;23223;51.006;7.610;2022-10-31T11:08:35;22.70;99.90
37340;DHT22;23223;51.006;7.610;2022-10-31T11:13:43;22.30;99.90
37340;DHT22;23223;51.006;7.610;2022-10-31T11:16:35;22.10;99.90
37340;DHT22;23223;51.006;7.610;2022-10-31T11:21:40;21.90;99.90
37340;DHT22;23223;51.006;7.610;2022-10-31T11:26:34;22.00;99.90
37340;DHT22;23223;51.006;7.610;2022-10-31T11:29:00;22.00;99.90
37340;DHT22;23223;51.006;7.610;2022-10-31T11:31:28;21.90;99.90
37340;DHT22;23223;51.006;7.610;2022-10-31T11:34:02;21.90;99.90
37340;DHT22;23223;51.006;7.610;2022-10-31T11:36:32;21.60;99.90
37340;DHT22;23223;51.006;7.610;2022-10-31T11:38:59;21.60;99.90
37340;DHT22;23223;51.006;7.610;2022-10-31T11:41:30;21.40;99.90
37340;DHT22;23223;51.006;7.610;2022-10-31T11:44:00;21.40;99.90
37340;DHT22;23223;51.006;7.610;2022-10-31T11:46:43;21.50;99.90
37340;DHT22;23223;51.006;7.610;2022-10-31T11:51:56;21.40;99.90
37340;DHT22;23223;51.006;7.610;2022-10-31T11:54:29;21.20;99.90
37340;DHT22;23223;51.006;7.610;2022-10-31T11:56:56;21.10;99.90
37340;DHT22;23223;51.006;7.610;2022-10-31T11:59:25;21.00;99.90
37340;DHT22;23223;51.006;7.610;2022-10-31T12:01:53;20.80;99.90
37340;DHT22;23223;51.006;7.610;2022-10-31T12:04:35;20.80;99.90
37340;DHT22;23223;51.006;7.610;2022-10-31T12:07:02;20.70;99.90
37340;DHT22;23223;51.006;7.610;2022-10-31T12:09:30;20.60;99.90
37340;DHT22;23223;51.006;7.610;2022-10-31T12:12:21;20.60;99.90
37340;DHT22;23223;51.006;7.610;2022-10-31T12:14:59;20.80;99.90
37340;DHT22;23223;51.006;7.610;2022-10-31T12:17:36;20.80;99.90
37340;DHT22;23223;51.006;7.610;2022-10-31T12:23:04;21.00;99.90
37340;DHT22;23223;51.006;7.610;2022-10-31T12:28:40;21.40;99.90
37340;DHT22;23223;51.006;7.610;2022-10-31T12:31:26;21.60;99.90
37340;DHT22;23223;51.006;7.610;2022-10-31T12:34:26;21.90;99.90
37340;DHT22;23223;51.006;7.610;2022-10-31T12:48:07;23.20;99.90
37340;DHT22;23223;51.006;7.610;2022-10-31T12:53:55;23.30;99.90
37340;DHT22;23223;51.006;7.610;2022-10-31T12:59:40;23.30;99.90
37340;DHT22;23223;51.006;7.610;2022-10-31T13:02:26;23.30;99.90
37340;DHT22;23223;51.006;7.610;2022-10-31T13:05:03;23.20;99.90
37340;DHT22;23223;51.006;7.610;2022-10-31T13:07:39;23.20;99.90
37340;DHT22;23223;51.006;7.610;2022-10-31T13:12:44;23.20;99.90
37340;DHT22;23223;51.006;7.610;2022-10-31T13:15:21;23.10;99.90
37340;DHT22;23223;51.006;7.610;2022-10-31T13:17:51;23.00;99.90
37340;DHT22;23223;51.006;7.610;2022-10-31T13:20:34;22.90;99.90
37340;DHT22;23223;51.006;7.610;2022-10-31T13:23:16;22.60;99.90
37340;DHT22;23223;51.006;7.610;2022-10-31T13:25:52;22.40;99.90
37340;DHT22;23223;51.006;7.610;2022-10-31T13:28:36;22.30;99.90
37340;DHT22;23223;51.006;7.610;2022-10-31T13:31:04;22.30;99.90
37340;DHT22;23223;51.006;7.610;2022-10-31T13:33:54;22.20;99.90
37340;DHT22;23223;51.006;7.610;2022-10-31T13:36:34;21.90;99.90
37340;DHT22;23223;51.006;7.610;2022-10-31T13:40:04;21.60;99.90
37340;DHT22;23223;51.006;7.610;2022-10-31T13:44:44;21.20;99.90
37340;DHT22;23223;51.006;7.610;2022-10-31T13:47:27;21.00;99.90
37340;DHT22;23223;51.006;7.610;2022-10-31T13:50:24;20.80;99.90
37340;DHT22;23223;51.006;7.610;2022-10-31T13:52:50;20.60;99.90
37340;DHT22;23223;51.006;7.610;2022-10-31T13:55:42;20.60;99.90
37340;DHT22;23223;51.006;7.610;2022-10-31T13:58:30;20.60;99.90
37340;DHT22;23223;51.006;7.610;2022-10-31T14:01:18;20.70;99.90
37340;DHT22;23223;51.006;7.610;2022-10-31T14:03:47;20.70;99.90
37340;DHT22;23223;51.006;7.610;2022-10-31T14:06:13;20.90;99.90
37340;DHT22;23223;51.006;7.610;2022-10-31T14:08:48;20.80;99.90
37340;DHT22;23223;51.006;7.610;2022-10-31T14:11:24;20.80;99.90
37340;DHT22;23223;51.006;7.610;2022-10-31T14:13:50;20.60;99.90
37340;DHT22;23223;51.006;7.610;2022-10-31T14:16:30;20.40;99.90
37340;DHT22;23223;51.006;7.610;2022-10-31T14:19:05;20.30;99.90
37340;DHT22;23223;51.006;7.610;2022-10-31T14:21:38;20.20;99.90
37340;DHT22;23223;51.006;7.610;2022-10-31T14:24:14;20.00;99.90
37340;DHT22;23223;51.006;7.610;2022-10-31T14:26:52;19.80;99.90
37340;DHT22;23223;51.006;7.610;2022-10-31T14:32:15;19.60;99.90
37340;DHT22;23223;51.006;7.610;2022-10-31T14:49:07;19.20;99.90
37340;DHT22;23223;51.006;7.610;2022-10-31T14:51:44;19.10;99.90
37340;DHT22;23223;51.006;7.610;2022-10-31T14:54:24;19.00;99.90
37340;DHT22;23223;51.006;7.610;2022-10-31T14:56:54;19.00;99.90
37340;DHT22;23223;51.006;7.610;2022-10-31T14:59:25;18.90;99.90
37340;DHT22;23223;51.006;7.610;2022-10-31T15:02:20;18.90;99.90
37340;DHT22;23223;51.006;7.610;2022-10-31T15:04:48;18.80;99.90
37340;DHT22;23223;51.006;7.610;2022-10-31T15:07:20;18.80;99.90
37340;DHT22;23223;51.006;7.610;2022-10-31T15:09:59;18.70;99.90
37340;DHT22;23223;51.006;7.610;2022-10-31T15:12:30;18.60;99.90
37340;DHT22;23223;51.006;7.610;2022-10-31T15:14:57;18.60;99.90
37340;DHT22;23223;51.006;7.610;2022-10-31T15:17:25;18.50;99.90
37340;DHT22;23223;51.006;7.610;2022-10-31T15:19:52;18.50;99.90
37340;DHT22;23223;51.006;7.610;2022-10-31T15:22:21;18.50;99.90
37340;DHT22;23223;51.006;7.610;2022-10-31T15:24:49;18.50;99.90
37340;DHT22;23223;51.006;7.610;2022-10-31T15:27:22;18.50;99.90
37340;DHT22;23223;51.006;7.610;2022-10-31T15:29:53;18.40;99.90
37340;DHT22;23223;51.006;7.610;2022-10-31T15:32:27;18.40;99.90
37340;DHT22;23223;51.006;7.610;2022-10-31T15:34:54;18.40;99.90
37340;DHT22;23223;51.006;7.610;2022-10-31T15:37:24;18.30;99.90
37340;DHT22;23223;51.006;7.610;2022-10-31T15:39:51;18.30;99.90
37340;DHT22;23223;51.006;7.610;2022-10-31T15:42:29;18.30;99.90
37340;DHT22;23223;51.006;7.610;2022-10-31T15:47:36;18.20;99.90
37340;DHT22;23223;51.006;7.610;2022-10-31T15:50:05;18.20;99.90
37340;DHT22;23223;51.006;7.610;2022-10-31T15:52:42;18.10;99.90
37340;DHT22;23223;51.006;7.610;2022-10-31T15:55:20;18.00;99.90
37340;DHT22;23223;51.006;7.610;2022-10-31T15:57:52;17.90;99.90
37340;DHT22;23223;51.006;7.610;2022-10-31T16:00:29;17.80;99.90
37340;DHT22;23223;51.006;7.610;2022-10-31T16:05:45;17.60;99.90
37340;DHT22;23223;51.006;7.610;2022-10-31T16:08:33;17.50;99.90
37340;DHT22;23223;51.006;7.610;2022-10-31T16:11:17;17.40;99.90
37340;DHT22;23223;51.006;7.610;2022-10-31T16:14:13;17.30;99.90
37340;DHT22;23223;51.006;7.610;2022-10-31T16:16:48;17.20;99.90
37340;DHT22;23223;51.006;7.610;2022-10-31T16:19:24;17.20;99.90
37340;DHT22;23223;51.006;7.610;2022-10-31T16:21:54;17.10;99.90
37340;DHT22;23223;51.006;7.610;2022-10-31T16:24:32;17.00;99.90
37340;DHT22;23223;51.006;7.610;2022-10-31T16:27:05;16.90;99.90
37340;DHT22;23223;51.006;7.610;2022-10-31T16:29:39;16.90;99.90
37340;DHT22;23223;51.006;7.610;2022-10-31T16:35:01;16.70;99.90
37340;DHT22;23223;51.006;7.610;2022-10-31T16:37:27;16.70;99.90
37340;DHT22;23223;51.006;7.610;2022-10-31T16:39:53;16.60;99.90
37340;DHT22;23223;51.006;7.610;2022-10-31T16:42:18;16.50;99.90
37340;DHT22;23223;51.006;7.610;2022-10-31T16:44:44;16.50;99.90
37340;DHT22;23223;51.006;7.610;2022-10-31T16:47:16;16.40;99.90
37340;DHT22;23223;51.006;7.610;2022-10-31T16:49:42;16.40;99.90
37340;DHT22;23223;51.006;7.610;2022-10-31T16:52:08;16.40;99.90
37340;DHT22;23223;51.006;7.610;2022-10-31T16:54:34;16.30;99.90
37340;DHT22;23223;51.006;7.610;2022-10-31T16:57:01;16.30;99.90
37340;DHT22;23223;51.006;7.610;2022-10-31T16:59:27;16.20;99.90
37340;DHT22;23223;51.006;7.610;2022-10-31T17:01:55;16.10;99.90
37340;DHT22;23223;51.006;7.610;2022-10-31T17:04:21;15.80;99.90
37340;DHT22;23223;51.006;7.610;2022-10-31T17:06:46;15.50;99.90
37340;DHT22;23223;51.006;7.610;2022-10-31T17:09:12;15.40;99.90
37340;DHT22;23223;51.006;7.610;2022-10-31T17:11:41;15.50;99.90
37340;DHT22;23223;51.006;7.610;2022-10-31T17:14:10;15.60;99.90
37340;DHT22;23223;51.006;7.610;2022-10-31T17:16:36;15.40;99.90
37340;DHT22;23223;51.006;7.610;2022-10-31T17:19:02;15.20;99.90
37340;DHT22;23223;51.006;7.610;2022-10-31T17:21:28;15.30;99.90
37340;DHT22;23223;51.006;7.610;2022-10-31T17:23:54;15.00;99.90
37340;DHT22;23223;51.006;7.610;2022-10-31T17:26:20;14.80;99.90
37340;DHT22;23223;51.006;7.610;2022-10-31T17:28:45;14.60;99.90
37340;DHT22;23223;51.006;7.610;2022-10-31T17:31:22;14.50;99.90
37340;DHT22;23223;51.006;7.610;2022-10-31T17:33:49;14.60;99.90
37340;DHT22;23223;51.006;7.610;2022-10-31T17:36:15;14.60;99.90
37340;DHT22;23223;51.006;7.610;2022-10-31T17:38:40;14.50;99.90
37340;DHT22;23223;51.006;7.610;2022-10-31T17:41:07;14.30;99.90
37340;DHT22;23223;51.006;7.610;2022-10-31T17:43:33;14.30;99.90
37340;DHT22;23223;51.006;7.610;2022-10-31T17:45:59;14.30;99.90
37340;DHT22;23223;51.006;7.610;2022-10-31T17:48:27;14.10;99.90
37340;DHT22;23223;51.006;7.610;2022-10-31T17:50:52;13.90;99.90
37340;DHT22;23223;51.006;7.610;2022-10-31T17:53:18;13.70;99.90
37340;DHT22;23223;51.006;7.610;2022-10-31T17:55:43;13.80;99.90
37340;DHT22;23223;51.006;7.610;2022-10-31T17:58:09;13.70;99.90
37340;DHT22;23223;51.006;7.610;2022-10-31T18:00:38;13.60;99.90
37340;DHT22;23223;51.006;7.610;2022-10-31T18:03:05;13.60;99.90